Pays
Station

 

Conditions  météo  pour  Presidencia Roque Saenz Pena Aer  -  Argentine    Argentine

  
14 °C
    
 
 

METAR pour Presidencia Roque Saenz Pena Aer :

SARS 051618Z 20011KT 2000 -DZ OVC005 14/14 Q1022 RERA

 

Voici le bulletin pour Presidencia Roque Saenz Pena Aer - Argentine.
 
Le bulletin a été fait il y a 252 heures et 11 minutes, à 16:18 UTC .
Le vent soufflait à la vitesse de 5.7 mètres par seconde de Sud/Sud-ouest (200°).
 
La température était de 14 °C, avec un point de rosée à 14 °C.
La pression atmosphérique était de 1022 hPa.
L'humidité relative était de 100.0%.
 
Le ciel était nuageux à partir d'une hauteur de 152 mètres
 
La visibilité globale était de 2000 mètres.
 
Actuellement léger/legère bruine.

 
 
 

Pays :   A   B   C   D   E   F   G   H   I   J   K   L   M   N   O   P   Q   R   S   T   U   V   W   Y   Z

 

Partenaires :  Info Météo avec Met'info
Météo Marine avec MeteoMarine.net
Infos Site  |  Infos Légales  |  Crédits  |  Confidentialité
Contactez-nous  |  Ajouter aux favoris
© 2013-2019 METAR - Tous droits réservés